sensor_id;sensor_type;location;lat;lon;timestamp;P1;durP1;ratioP1;P2;durP2;ratioP2
70008;SDS011;59542;37.950;-122.338;2023-04-01T00:01:09;2.35;;;0.88;;
70008;SDS011;59542;37.950;-122.338;2023-04-01T00:03:39;3.10;;;0.93;;
70008;SDS011;59542;37.950;-122.338;2023-04-01T00:06:06;6.28;;;1.00;;
70008;SDS011;59542;37.950;-122.338;2023-04-01T00:08:32;1.25;;;0.57;;
70008;SDS011;59542;37.950;-122.338;2023-04-01T00:10:58;3.33;;;0.88;;
70008;SDS011;59542;37.950;-122.338;2023-04-01T00:13:25;3.88;;;1.20;;
70008;SDS011;59542;37.950;-122.338;2023-04-01T00:15:52;2.90;;;1.10;;
70008;SDS011;59542;37.950;-122.338;2023-04-01T00:18:20;4.63;;;1.05;;
70008;SDS011;59542;37.950;-122.338;2023-04-01T00:20:47;2.45;;;1.05;;
70008;SDS011;59542;37.950;-122.338;2023-04-01T00:23:15;4.32;;;1.00;;
70008;SDS011;59542;37.950;-122.338;2023-04-01T00:25:43;3.15;;;0.90;;
70008;SDS011;59542;37.950;-122.338;2023-04-01T00:28:12;2.53;;;0.80;;
70008;SDS011;59542;37.950;-122.338;2023-04-01T00:30:38;4.78;;;1.10;;
70008;SDS011;59542;37.950;-122.338;2023-04-01T00:33:04;4.28;;;0.95;;
70008;SDS011;59542;37.950;-122.338;2023-04-01T00:35:31;2.85;;;1.20;;
70008;SDS011;59542;37.950;-122.338;2023-04-01T00:37:57;3.22;;;0.93;;
70008;SDS011;59542;37.950;-122.338;2023-04-01T00:40:26;1.60;;;0.85;;
70008;SDS011;59542;37.950;-122.338;2023-04-01T00:42:54;2.70;;;1.25;;
70008;SDS011;59542;37.950;-122.338;2023-04-01T00:48:10;3.83;;;1.13;;
70008;SDS011;59542;37.950;-122.338;2023-04-01T00:50:50;3.38;;;1.00;;
70008;SDS011;59542;37.950;-122.338;2023-04-01T00:53:41;3.78;;;1.25;;
70008;SDS011;59542;37.950;-122.338;2023-04-01T00:56:11;6.18;;;0.85;;
70008;SDS011;59542;37.950;-122.338;2023-04-01T00:58:51;4.32;;;1.30;;
70008;SDS011;59542;37.950;-122.338;2023-04-01T01:01:24;3.65;;;1.23;;
70008;SDS011;59542;37.950;-122.338;2023-04-01T01:03:50;1.75;;;0.90;;
70008;SDS011;59542;37.950;-122.338;2023-04-01T01:12:03;4.75;;;1.13;;
70008;SDS011;59542;37.950;-122.338;2023-04-01T01:14:45;4.50;;;1.27;;
70008;SDS011;59542;37.950;-122.338;2023-04-01T01:17:39;3.85;;;1.17;;
70008;SDS011;59542;37.950;-122.338;2023-04-01T01:31:20;5.90;;;1.33;;
70008;SDS011;59542;37.950;-122.338;2023-04-01T01:36:35;4.75;;;1.50;;
70008;SDS011;59542;37.950;-122.338;2023-04-01T01:39:04;4.22;;;1.52;;
70008;SDS011;59542;37.950;-122.338;2023-04-01T01:41:34;5.53;;;1.70;;
70008;SDS011;59542;37.950;-122.338;2023-04-01T01:44:02;4.65;;;1.60;;
70008;SDS011;59542;37.950;-122.338;2023-04-01T01:46:32;5.40;;;1.70;;
70008;SDS011;59542;37.950;-122.338;2023-04-01T01:48:59;4.43;;;1.30;;
70008;SDS011;59542;37.950;-122.338;2023-04-01T01:51:27;4.55;;;1.58;;
70008;SDS011;59542;37.950;-122.338;2023-04-01T01:53:54;5.20;;;1.60;;
70008;SDS011;59542;37.950;-122.338;2023-04-01T01:56:21;8.05;;;1.73;;
70008;SDS011;59542;37.950;-122.338;2023-04-01T01:58:53;7.28;;;1.70;;
70008;SDS011;59542;37.950;-122.338;2023-04-01T02:01:26;7.32;;;1.60;;
70008;SDS011;59542;37.950;-122.338;2023-04-01T02:03:55;6.55;;;2.25;;
70008;SDS011;59542;37.950;-122.338;2023-04-01T02:06:26;4.35;;;1.30;;
70008;SDS011;59542;37.950;-122.338;2023-04-01T02:08:56;6.05;;;1.90;;
70008;SDS011;59542;37.950;-122.338;2023-04-01T02:11:49;5.78;;;1.60;;
70008;SDS011;59542;37.950;-122.338;2023-04-01T02:14:26;7.93;;;1.90;;
70008;SDS011;59542;37.950;-122.338;2023-04-01T02:17:06;8.18;;;1.90;;
70008;SDS011;59542;37.950;-122.338;2023-04-01T02:19:36;6.13;;;1.42;;
70008;SDS011;59542;37.950;-122.338;2023-04-01T02:22:08;8.25;;;1.88;;
70008;SDS011;59542;37.950;-122.338;2023-04-01T02:24:38;3.35;;;1.40;;
70008;SDS011;59542;37.950;-122.338;2023-04-01T02:27:08;2.83;;;1.08;;
70008;SDS011;59542;37.950;-122.338;2023-04-01T02:29:35;2.53;;;1.10;;
70008;SDS011;59542;37.950;-122.338;2023-04-01T02:32:02;3.53;;;1.10;;
70008;SDS011;59542;37.950;-122.338;2023-04-01T02:34:31;3.63;;;1.30;;
70008;SDS011;59542;37.950;-122.338;2023-04-01T02:36:58;4.75;;;1.02;;
70008;SDS011;59542;37.950;-122.338;2023-04-01T02:39:25;6.55;;;1.73;;
70008;SDS011;59542;37.950;-122.338;2023-04-01T02:41:51;3.10;;;1.25;;
70008;SDS011;59542;37.950;-122.338;2023-04-01T02:44:18;2.50;;;1.40;;
70008;SDS011;59542;37.950;-122.338;2023-04-01T02:46:44;3.70;;;1.00;;
70008;SDS011;59542;37.950;-122.338;2023-04-01T02:49:10;2.42;;;1.42;;
70008;SDS011;59542;37.950;-122.338;2023-04-01T02:51:37;6.55;;;1.30;;
70008;SDS011;59542;37.950;-122.338;2023-04-01T02:54:04;4.00;;;1.42;;
70008;SDS011;59542;37.950;-122.338;2023-04-01T02:56:30;3.00;;;1.55;;
70008;SDS011;59542;37.950;-122.338;2023-04-01T02:58:56;8.65;;;1.95;;
70008;SDS011;59542;37.950;-122.338;2023-04-01T03:01:22;3.83;;;1.40;;
70008;SDS011;59542;37.950;-122.338;2023-04-01T03:03:49;4.75;;;1.40;;
70008;SDS011;59542;37.950;-122.338;2023-04-01T03:06:16;4.28;;;1.45;;
70008;SDS011;59542;37.950;-122.338;2023-04-01T03:08:42;4.53;;;1.85;;
70008;SDS011;59542;37.950;-122.338;2023-04-01T03:11:10;5.20;;;1.67;;
70008;SDS011;59542;37.950;-122.338;2023-04-01T03:13:36;7.60;;;1.50;;
70008;SDS011;59542;37.950;-122.338;2023-04-01T03:16:03;7.10;;;1.60;;
70008;SDS011;59542;37.950;-122.338;2023-04-01T03:18:29;3.25;;;1.88;;
70008;SDS011;59542;37.950;-122.338;2023-04-01T03:20:56;5.55;;;1.45;;
70008;SDS011;59542;37.950;-122.338;2023-04-01T03:23:22;5.40;;;1.60;;
70008;SDS011;59542;37.950;-122.338;2023-04-01T03:25:49;3.72;;;1.85;;
70008;SDS011;59542;37.950;-122.338;2023-04-01T03:28:16;4.90;;;1.58;;
70008;SDS011;59542;37.950;-122.338;2023-04-01T03:30:42;3.33;;;1.85;;
70008;SDS011;59542;37.950;-122.338;2023-04-01T03:33:08;3.78;;;1.15;;
70008;SDS011;59542;37.950;-122.338;2023-04-01T03:35:35;4.57;;;1.58;;
70008;SDS011;59542;37.950;-122.338;2023-04-01T03:38:01;8.27;;;1.90;;
70008;SDS011;59542;37.950;-122.338;2023-04-01T03:40:28;5.10;;;1.73;;
70008;SDS011;59542;37.950;-122.338;2023-04-01T03:42:55;6.70;;;1.77;;
70008;SDS011;59542;37.950;-122.338;2023-04-01T03:45:21;7.65;;;1.90;;
70008;SDS011;59542;37.950;-122.338;2023-04-01T03:47:47;8.15;;;2.17;;
70008;SDS011;59542;37.950;-122.338;2023-04-01T03:50:14;4.88;;;1.67;;
70008;SDS011;59542;37.950;-122.338;2023-04-01T03:52:40;4.78;;;1.92;;
70008;SDS011;59542;37.950;-122.338;2023-04-01T03:55:06;6.43;;;1.65;;
70008;SDS011;59542;37.950;-122.338;2023-04-01T03:57:33;3.03;;;1.48;;
70008;SDS011;59542;37.950;-122.338;2023-04-01T03:59:59;4.22;;;1.48;;
70008;SDS011;59542;37.950;-122.338;2023-04-01T04:02:25;8.55;;;1.83;;
70008;SDS011;59542;37.950;-122.338;2023-04-01T04:04:52;3.78;;;1.33;;
70008;SDS011;59542;37.950;-122.338;2023-04-01T04:07:18;4.63;;;1.30;;
70008;SDS011;59542;37.950;-122.338;2023-04-01T04:09:44;3.72;;;1.42;;
70008;SDS011;59542;37.950;-122.338;2023-04-01T04:12:10;4.32;;;1.63;;
70008;SDS011;59542;37.950;-122.338;2023-04-01T04:14:36;4.05;;;1.73;;
70008;SDS011;59542;37.950;-122.338;2023-04-01T04:17:03;6.18;;;1.90;;
70008;SDS011;59542;37.950;-122.338;2023-04-01T04:19:31;6.65;;;1.98;;
70008;SDS011;59542;37.950;-122.338;2023-04-01T04:22:01;5.40;;;1.63;;
70008;SDS011;59542;37.950;-122.338;2023-04-01T04:24:27;3.40;;;1.50;;
70008;SDS011;59542;37.950;-122.338;2023-04-01T04:26:54;4.45;;;1.65;;
70008;SDS011;59542;37.950;-122.338;2023-04-01T04:29:20;4.82;;;1.60;;
70008;SDS011;59542;37.950;-122.338;2023-04-01T04:31:48;5.13;;;1.63;;
70008;SDS011;59542;37.950;-122.338;2023-04-01T04:34:14;4.65;;;1.50;;
70008;SDS011;59542;37.950;-122.338;2023-04-01T04:36:40;3.95;;;1.60;;
70008;SDS011;59542;37.950;-122.338;2023-04-01T04:39:06;6.05;;;2.03;;
70008;SDS011;59542;37.950;-122.338;2023-04-01T04:41:33;3.47;;;1.70;;
70008;SDS011;59542;37.950;-122.338;2023-04-01T04:43:59;6.93;;;2.40;;
70008;SDS011;59542;37.950;-122.338;2023-04-01T04:46:25;4.25;;;2.42;;
70008;SDS011;59542;37.950;-122.338;2023-04-01T04:48:51;3.22;;;2.05;;
70008;SDS011;59542;37.950;-122.338;2023-04-01T04:51:18;5.28;;;2.47;;
70008;SDS011;59542;37.950;-122.338;2023-04-01T04:53:46;7.38;;;2.67;;
70008;SDS011;59542;37.950;-122.338;2023-04-01T04:56:16;6.30;;;2.15;;
70008;SDS011;59542;37.950;-122.338;2023-04-01T04:58:46;5.00;;;2.33;;
70008;SDS011;59542;37.950;-122.338;2023-04-01T05:01:14;5.95;;;1.90;;
70008;SDS011;59542;37.950;-122.338;2023-04-01T05:03:41;3.47;;;1.70;;
70008;SDS011;59542;37.950;-122.338;2023-04-01T05:06:08;6.40;;;2.00;;
70008;SDS011;59542;37.950;-122.338;2023-04-01T05:08:35;8.25;;;2.47;;
70008;SDS011;59542;37.950;-122.338;2023-04-01T05:11:06;5.07;;;2.40;;
70008;SDS011;59542;37.950;-122.338;2023-04-01T05:13:37;3.42;;;1.85;;
70008;SDS011;59542;37.950;-122.338;2023-04-01T05:16:07;7.20;;;2.55;;
70008;SDS011;59542;37.950;-122.338;2023-04-01T05:18:37;5.63;;;2.45;;
70008;SDS011;59542;37.950;-122.338;2023-04-01T05:21:03;7.07;;;2.20;;
70008;SDS011;59542;37.950;-122.338;2023-04-01T05:23:31;4.65;;;2.05;;
70008;SDS011;59542;37.950;-122.338;2023-04-01T05:25:58;4.78;;;2.22;;
70008;SDS011;59542;37.950;-122.338;2023-04-01T05:28:28;4.05;;;1.63;;
70008;SDS011;59542;37.950;-122.338;2023-04-01T05:30:55;2.90;;;1.65;;
70008;SDS011;59542;37.950;-122.338;2023-04-01T05:33:25;6.70;;;1.88;;
70008;SDS011;59542;37.950;-122.338;2023-04-01T05:35:52;4.82;;;1.77;;
70008;SDS011;59542;37.950;-122.338;2023-04-01T05:38:18;6.35;;;2.40;;
70008;SDS011;59542;37.950;-122.338;2023-04-01T05:40:45;3.72;;;1.88;;
70008;SDS011;59542;37.950;-122.338;2023-04-01T05:43:11;4.32;;;2.17;;
70008;SDS011;59542;37.950;-122.338;2023-04-01T05:45:38;8.82;;;2.78;;
70008;SDS011;59542;37.950;-122.338;2023-04-01T05:48:04;5.57;;;2.28;;
70008;SDS011;59542;37.950;-122.338;2023-04-01T05:50:31;8.65;;;2.55;;
70008;SDS011;59542;37.950;-122.338;2023-04-01T05:52:57;7.82;;;3.03;;
70008;SDS011;59542;37.950;-122.338;2023-04-01T05:55:23;8.25;;;3.03;;
70008;SDS011;59542;37.950;-122.338;2023-04-01T05:57:49;5.40;;;2.20;;
70008;SDS011;59542;37.950;-122.338;2023-04-01T06:00:16;5.65;;;2.05;;
70008;SDS011;59542;37.950;-122.338;2023-04-01T06:02:45;6.22;;;2.30;;
70008;SDS011;59542;37.950;-122.338;2023-04-01T06:07:45;14.48;;;10.15;;
70008;SDS011;59542;37.950;-122.338;2023-04-01T06:10:18;14.07;;;5.57;;
70008;SDS011;59542;37.950;-122.338;2023-04-01T06:12:51;9.80;;;3.90;;
70008;SDS011;59542;37.950;-122.338;2023-04-01T06:15:30;8.45;;;2.92;;
70008;SDS011;59542;37.950;-122.338;2023-04-01T06:20:39;8.25;;;2.75;;
70008;SDS011;59542;37.950;-122.338;2023-04-01T06:31:58;7.55;;;2.13;;
70008;SDS011;59542;37.950;-122.338;2023-04-01T06:42:34;5.55;;;1.60;;
70008;SDS011;59542;37.950;-122.338;2023-04-01T06:50:35;8.27;;;2.10;;
70008;SDS011;59542;37.950;-122.338;2023-04-01T06:53:12;5.78;;;2.08;;
70008;SDS011;59542;37.950;-122.338;2023-04-01T06:55:50;10.90;;;2.28;;
70008;SDS011;59542;37.950;-122.338;2023-04-01T06:58:41;6.03;;;2.25;;
70008;SDS011;59542;37.950;-122.338;2023-04-01T07:01:19;6.13;;;1.85;;
70008;SDS011;59542;37.950;-122.338;2023-04-01T07:06:42;4.80;;;2.40;;
70008;SDS011;59542;37.950;-122.338;2023-04-01T07:09:33;7.38;;;2.25;;
70008;SDS011;59542;37.950;-122.338;2023-04-01T07:12:29;7.28;;;2.47;;
70008;SDS011;59542;37.950;-122.338;2023-04-01T07:15:04;8.18;;;2.38;;
70008;SDS011;59542;37.950;-122.338;2023-04-01T07:17:55;7.90;;;2.60;;
70008;SDS011;59542;37.950;-122.338;2023-04-01T07:20:27;6.65;;;2.15;;
70008;SDS011;59542;37.950;-122.338;2023-04-01T07:22:58;8.63;;;2.35;;
70008;SDS011;59542;37.950;-122.338;2023-04-01T07:25:46;5.75;;;1.90;;
70008;SDS011;59542;37.950;-122.338;2023-04-01T07:28:17;7.80;;;2.42;;
70008;SDS011;59542;37.950;-122.338;2023-04-01T07:39:24;4.72;;;2.10;;
70008;SDS011;59542;37.950;-122.338;2023-04-01T07:42:29;6.57;;;2.10;;
70008;SDS011;59542;37.950;-122.338;2023-04-01T07:47:55;8.10;;;2.70;;
70008;SDS011;59542;37.950;-122.338;2023-04-01T07:58:31;7.20;;;2.28;;
70008;SDS011;59542;37.950;-122.338;2023-04-01T08:03:53;10.32;;;2.60;;
70008;SDS011;59542;37.950;-122.338;2023-04-01T08:06:24;7.35;;;2.58;;
70008;SDS011;59542;37.950;-122.338;2023-04-01T08:11:40;5.43;;;2.20;;
70008;SDS011;59542;37.950;-122.338;2023-04-01T08:14:48;5.90;;;2.20;;
70008;SDS011;59542;37.950;-122.338;2023-04-01T08:22:50;4.88;;;1.92;;
70008;SDS011;59542;37.950;-122.338;2023-04-01T08:25:24;8.65;;;2.55;;
70008;SDS011;59542;37.950;-122.338;2023-04-01T08:27:57;5.43;;;2.35;;
70008;SDS011;59542;37.950;-122.338;2023-04-01T08:35:56;5.05;;;2.15;;
70008;SDS011;59542;37.950;-122.338;2023-04-01T08:40:58;7.63;;;2.08;;
70008;SDS011;59542;37.950;-122.338;2023-04-01T08:44:12;15.13;;;2.72;;
70008;SDS011;59542;37.950;-122.338;2023-04-01T08:47:05;6.43;;;1.90;;
70008;SDS011;59542;37.950;-122.338;2023-04-01T08:52:56;6.40;;;2.33;;
70008;SDS011;59542;37.950;-122.338;2023-04-01T09:13:14;5.05;;;2.25;;
70008;SDS011;59542;37.950;-122.338;2023-04-01T09:27:05;7.30;;;2.22;;
70008;SDS011;59542;37.950;-122.338;2023-04-01T09:40:16;7.72;;;1.90;;
70008;SDS011;59542;37.950;-122.338;2023-04-01T09:45:35;6.82;;;2.20;;
70008;SDS011;59542;37.950;-122.338;2023-04-01T09:53:48;9.00;;;2.30;;
70008;SDS011;59542;37.950;-122.338;2023-04-01T10:02:00;5.25;;;2.03;;
70008;SDS011;59542;37.950;-122.338;2023-04-01T10:16:12;5.93;;;2.00;;
70008;SDS011;59542;37.950;-122.338;2023-04-01T11:18:47;12.02;;;2.72;;
70008;SDS011;59542;37.950;-122.338;2023-04-01T11:24:25;7.20;;;1.95;;
70008;SDS011;59542;37.950;-122.338;2023-04-01T11:27:19;5.65;;;2.22;;
70008;SDS011;59542;37.950;-122.338;2023-04-01T11:44:25;6.47;;;2.30;;
70008;SDS011;59542;37.950;-122.338;2023-04-01T11:49:33;8.52;;;2.55;;
70008;SDS011;59542;37.950;-122.338;2023-04-01T11:54:52;5.80;;;2.58;;
70008;SDS011;59542;37.950;-122.338;2023-04-01T12:19:14;9.63;;;3.00;;
70008;SDS011;59542;37.950;-122.338;2023-04-01T12:44:17;5.85;;;2.25;;
70008;SDS011;59542;37.950;-122.338;2023-04-01T13:03:50;5.40;;;2.13;;
70008;SDS011;59542;37.950;-122.338;2023-04-01T13:07:07;6.80;;;2.30;;
70008;SDS011;59542;37.950;-122.338;2023-04-01T13:20:21;5.82;;;2.20;;
70008;SDS011;59542;37.950;-122.338;2023-04-01T13:23:10;8.30;;;2.42;;
70008;SDS011;59542;37.950;-122.338;2023-04-01T13:26:09;8.57;;;2.70;;
70008;SDS011;59542;37.950;-122.338;2023-04-01T13:29:03;7.35;;;2.25;;
70008;SDS011;59542;37.950;-122.338;2023-04-01T13:43:04;4.88;;;1.80;;
70008;SDS011;59542;37.950;-122.338;2023-04-01T14:10:25;6.60;;;2.45;;
70008;SDS011;59542;37.950;-122.338;2023-04-01T14:16:31;7.53;;;2.47;;
70008;SDS011;59542;37.950;-122.338;2023-04-01T14:22:05;6.10;;;2.55;;
70008;SDS011;59542;37.950;-122.338;2023-04-01T14:25:03;6.70;;;1.90;;
70008;SDS011;59542;37.950;-122.338;2023-04-01T14:30:41;4.35;;;2.40;;
70008;SDS011;59542;37.950;-122.338;2023-04-01T14:36:28;6.63;;;2.53;;
70008;SDS011;59542;37.950;-122.338;2023-04-01T14:47:59;8.88;;;2.63;;
70008;SDS011;59542;37.950;-122.338;2023-04-01T14:50:44;7.47;;;2.72;;
70008;SDS011;59542;37.950;-122.338;2023-04-01T14:53:35;6.63;;;2.88;;
70008;SDS011;59542;37.950;-122.338;2023-04-01T14:56:04;7.03;;;3.33;;
70008;SDS011;59542;37.950;-122.338;2023-04-01T14:58:41;5.43;;;3.00;;
70008;SDS011;59542;37.950;-122.338;2023-04-01T15:09:26;10.43;;;3.25;;
70008;SDS011;59542;37.950;-122.338;2023-04-01T15:18:00;5.63;;;2.67;;
70008;SDS011;59542;37.950;-122.338;2023-04-01T15:21:05;10.15;;;3.65;;
70008;SDS011;59542;37.950;-122.338;2023-04-01T15:23:59;8.10;;;4.13;;
70008;SDS011;59542;37.950;-122.338;2023-04-01T15:32:32;10.93;;;4.22;;
70008;SDS011;59542;37.950;-122.338;2023-04-01T15:38:05;8.73;;;3.95;;
70008;SDS011;59542;37.950;-122.338;2023-04-01T15:41:20;9.60;;;4.70;;
70008;SDS011;59542;37.950;-122.338;2023-04-01T15:43:54;11.35;;;5.50;;
70008;SDS011;59542;37.950;-122.338;2023-04-01T15:46:24;11.65;;;4.57;;
70008;SDS011;59542;37.950;-122.338;2023-04-01T15:49:03;13.00;;;5.05;;
70008;SDS011;59542;37.950;-122.338;2023-04-01T16:03:54;9.52;;;5.07;;
70008;SDS011;59542;37.950;-122.338;2023-04-01T16:09:34;13.48;;;5.32;;
70008;SDS011;59542;37.950;-122.338;2023-04-01T16:18:02;9.30;;;3.88;;
70008;SDS011;59542;37.950;-122.338;2023-04-01T16:20:43;8.10;;;3.65;;
70008;SDS011;59542;37.950;-122.338;2023-04-01T16:23:24;6.30;;;3.80;;
70008;SDS011;59542;37.950;-122.338;2023-04-01T16:28:53;6.88;;;3.38;;
70008;SDS011;59542;37.950;-122.338;2023-04-01T16:31:31;8.30;;;3.23;;
70008;SDS011;59542;37.950;-122.338;2023-04-01T16:34:03;10.90;;;3.25;;
70008;SDS011;59542;37.950;-122.338;2023-04-01T16:36:45;9.25;;;3.70;;
70008;SDS011;59542;37.950;-122.338;2023-04-01T16:39:28;9.15;;;4.10;;
70008;SDS011;59542;37.950;-122.338;2023-04-01T16:47:51;8.02;;;3.33;;
70008;SDS011;59542;37.950;-122.338;2023-04-01T16:58:27;9.20;;;3.22;;
70008;SDS011;59542;37.950;-122.338;2023-04-01T17:04:19;7.13;;;2.50;;
70008;SDS011;59542;37.950;-122.338;2023-04-01T17:07:01;10.25;;;3.10;;
70008;SDS011;59542;37.950;-122.338;2023-04-01T17:09:53;7.72;;;2.30;;
70008;SDS011;59542;37.950;-122.338;2023-04-01T17:20:31;9.63;;;2.53;;
70008;SDS011;59542;37.950;-122.338;2023-04-01T17:23:11;5.80;;;2.33;;
70008;SDS011;59542;37.950;-122.338;2023-04-01T17:28:41;9.80;;;2.45;;
70008;SDS011;59542;37.950;-122.338;2023-04-01T17:31:21;6.35;;;2.63;;
70008;SDS011;59542;37.950;-122.338;2023-04-01T17:36:45;4.28;;;2.45;;
70008;SDS011;59542;37.950;-122.338;2023-04-01T17:56:44;6.95;;;2.28;;
70008;SDS011;59542;37.950;-122.338;2023-04-01T17:59:03;7.55;;;2.40;;
70008;SDS011;59542;37.950;-122.338;2023-04-01T18:05:03;5.25;;;1.98;;
70008;SDS011;59542;37.950;-122.338;2023-04-01T18:07:50;6.00;;;2.15;;
70008;SDS011;59542;37.950;-122.338;2023-04-01T18:11:25;5.90;;;1.70;;
70008;SDS011;59542;37.950;-122.338;2023-04-01T18:15:08;8.98;;;2.22;;
70008;SDS011;59542;37.950;-122.338;2023-04-01T18:28:17;6.47;;;1.67;;
70008;SDS011;59542;37.950;-122.338;2023-04-01T18:30:55;4.88;;;1.92;;
70008;SDS011;59542;37.950;-122.338;2023-04-01T18:36:59;5.43;;;2.17;;
70008;SDS011;59542;37.950;-122.338;2023-04-01T18:48:29;6.65;;;1.80;;
70008;SDS011;59542;37.950;-122.338;2023-04-01T18:56:37;6.72;;;1.65;;
70008;SDS011;59542;37.950;-122.338;2023-04-01T18:59:08;7.22;;;1.90;;
70008;SDS011;59542;37.950;-122.338;2023-04-01T19:02:02;3.17;;;1.42;;
70008;SDS011;59542;37.950;-122.338;2023-04-01T19:05:04;9.27;;;2.28;;
70008;SDS011;59542;37.950;-122.338;2023-04-01T19:10:00;3.78;;;1.40;;
70008;SDS011;59542;37.950;-122.338;2023-04-01T19:17:49;4.55;;;1.27;;
70008;SDS011;59542;37.950;-122.338;2023-04-01T19:20:42;10.35;;;1.80;;
70008;SDS011;59542;37.950;-122.338;2023-04-01T19:26:11;5.75;;;1.58;;
70008;SDS011;59542;37.950;-122.338;2023-04-01T19:29:02;8.15;;;1.83;;
70008;SDS011;59542;37.950;-122.338;2023-04-01T19:31:42;3.92;;;1.65;;
70008;SDS011;59542;37.950;-122.338;2023-04-01T19:36:54;4.97;;;1.83;;
70008;SDS011;59542;37.950;-122.338;2023-04-01T19:44:45;4.18;;;1.58;;
70008;SDS011;59542;37.950;-122.338;2023-04-01T19:53:13;6.07;;;1.60;;
70008;SDS011;59542;37.950;-122.338;2023-04-01T20:01:05;4.95;;;1.40;;
70008;SDS011;59542;37.950;-122.338;2023-04-01T20:03:50;6.47;;;1.50;;
70008;SDS011;59542;37.950;-122.338;2023-04-01T20:12:33;4.68;;;1.50;;
70008;SDS011;59542;37.950;-122.338;2023-04-01T20:18:15;4.45;;;1.50;;
70008;SDS011;59542;37.950;-122.338;2023-04-01T20:20:54;8.48;;;1.85;;
70008;SDS011;59542;37.950;-122.338;2023-04-01T20:23:41;7.35;;;1.95;;
70008;SDS011;59542;37.950;-122.338;2023-04-01T20:26:10;4.57;;;1.63;;
70008;SDS011;59542;37.950;-122.338;2023-04-01T20:28:45;4.65;;;1.40;;
70008;SDS011;59542;37.950;-122.338;2023-04-01T20:31:42;6.88;;;1.55;;
70008;SDS011;59542;37.950;-122.338;2023-04-01T20:34:13;4.50;;;1.25;;
70008;SDS011;59542;37.950;-122.338;2023-04-01T20:42:13;6.18;;;1.52;;
70008;SDS011;59542;37.950;-122.338;2023-04-01T20:44:56;4.32;;;1.30;;
70008;SDS011;59542;37.950;-122.338;2023-04-01T20:50:29;3.40;;;1.30;;
70008;SDS011;59542;37.950;-122.338;2023-04-01T20:53:16;3.38;;;1.30;;
70008;SDS011;59542;37.950;-122.338;2023-04-01T20:58:16;5.13;;;1.40;;
70008;SDS011;59542;37.950;-122.338;2023-04-01T21:06:20;8.90;;;1.42;;
70008;SDS011;59542;37.950;-122.338;2023-04-01T21:11:50;6.53;;;2.00;;
70008;SDS011;59542;37.950;-122.338;2023-04-01T21:19:49;6.82;;;1.60;;
70008;SDS011;59542;37.950;-122.338;2023-04-01T21:22:45;6.13;;;1.47;;
70008;SDS011;59542;37.950;-122.338;2023-04-01T21:39:05;4.93;;;1.20;;
70008;SDS011;59542;37.950;-122.338;2023-04-01T21:44:33;4.82;;;1.30;;
70008;SDS011;59542;37.950;-122.338;2023-04-01T21:47:23;6.30;;;1.50;;
70008;SDS011;59542;37.950;-122.338;2023-04-01T21:50:19;5.20;;;1.67;;
70008;SDS011;59542;37.950;-122.338;2023-04-01T22:01:40;4.95;;;1.17;;
70008;SDS011;59542;37.950;-122.338;2023-04-01T22:04:38;5.15;;;1.45;;
70008;SDS011;59542;37.950;-122.338;2023-04-01T22:07:31;3.88;;;1.13;;
70008;SDS011;59542;37.950;-122.338;2023-04-01T22:12:38;4.03;;;1.35;;
70008;SDS011;59542;37.950;-122.338;2023-04-01T22:17:59;5.05;;;1.30;;
70008;SDS011;59542;37.950;-122.338;2023-04-01T22:20:54;4.53;;;1.52;;
70008;SDS011;59542;37.950;-122.338;2023-04-01T22:26:10;2.80;;;1.20;;
70008;SDS011;59542;37.950;-122.338;2023-04-01T22:31:13;4.95;;;1.67;;
70008;SDS011;59542;37.950;-122.338;2023-04-01T22:33:54;4.63;;;1.60;;
70008;SDS011;59542;37.950;-122.338;2023-04-01T22:36:35;7.60;;;1.73;;
70008;SDS011;59542;37.950;-122.338;2023-04-01T22:47:24;4.95;;;1.65;;
70008;SDS011;59542;37.950;-122.338;2023-04-01T22:52:38;4.60;;;1.30;;
70008;SDS011;59542;37.950;-122.338;2023-04-01T22:55:27;8.52;;;1.45;;
70008;SDS011;59542;37.950;-122.338;2023-04-01T22:58:04;3.10;;;1.10;;
70008;SDS011;59542;37.950;-122.338;2023-04-01T23:00:37;2.92;;;1.00;;
70008;SDS011;59542;37.950;-122.338;2023-04-01T23:05:59;2.40;;;1.00;;
70008;SDS011;59542;37.950;-122.338;2023-04-01T23:11:16;5.03;;;1.15;;
70008;SDS011;59542;37.950;-122.338;2023-04-01T23:14:02;2.97;;;1.20;;
70008;SDS011;59542;37.950;-122.338;2023-04-01T23:16:37;2.67;;;1.20;;
70008;SDS011;59542;37.950;-122.338;2023-04-01T23:19:23;3.47;;;1.30;;
70008;SDS011;59542;37.950;-122.338;2023-04-01T23:27:29;2.40;;;1.25;;
70008;SDS011;59542;37.950;-122.338;2023-04-01T23:41:07;5.13;;;1.40;;
70008;SDS011;59542;37.950;-122.338;2023-04-01T23:43:42;4.85;;;1.40;;
70008;SDS011;59542;37.950;-122.338;2023-04-01T23:46:10;4.28;;;1.48;;
70008;SDS011;59542;37.950;-122.338;2023-04-01T23:48:44;6.05;;;1.85;;
70008;SDS011;59542;37.950;-122.338;2023-04-01T23:51:20;4.78;;;1.25;;
70008;SDS011;59542;37.950;-122.338;2023-04-01T23:54:15;4.07;;;1.30;;
70008;SDS011;59542;37.950;-122.338;2023-04-01T23:56:45;4.57;;;1.67;;
70008;SDS011;59542;37.950;-122.338;2023-04-01T23:59:18;4.13;;;1.27;;
